Time;durP1;ratioP1;P1;durP2;ratioP2;P2;SDS_P1;SDS_P2;PMS_P1;PMS_P2;Temp;Humidity;BMP_temperature;BMP_pressure;BME280_temperature;BME280_humidity;BME280_pressure;Samples;Min_cycle;Max_cycle;Signal;HPM_P1;HPM_P2
2022/06/16 00:02:02;;;;;;;8.63;5.70;;;12.80;99.90;;;;;;4982440;28;20387;-89
2022/06/16 00:04:28;;;;;;;8.27;5.72;;;12.80;99.90;;;;;;5017317;28;20054;-89
2022/06/16 00:06:55;;;;;;;8.90;5.55;;;12.80;99.90;;;;;;5017340;28;20049;-88
2022/06/16 00:09:25;;;;;;;9.05;5.63;;;12.80;99.90;;;;;;5017405;28;20049;-89
2022/06/16 00:11:50;;;;;;;11.70;6.25;;;12.80;99.90;;;;;;5016905;28;20053;-89
2022/06/16 00:14:16;;;;;;;14.52;6.47;;;12.80;99.90;;;;;;4983915;28;20444;-88
2022/06/16 00:16:41;;;;;;;7.63;5.78;;;12.80;99.90;;;;;;4983873;28;20386;-88
2022/06/16 00:19:07;;;;;;;7.85;5.10;;;12.80;99.90;;;;;;4967839;28;20052;-89
2022/06/16 00:21:33;;;;;;;8.68;5.32;;;12.80;99.90;;;;;;4983901;28;20057;-89
2022/06/16 00:23:59;;;;;;;7.32;5.00;;;12.80;99.90;;;;;;4984482;28;20060;-89
2022/06/16 00:26:25;;;;;;;8.85;5.22;;;12.80;99.90;;;;;;5015938;28;20474;-89
2022/06/16 00:28:51;;;;;;;9.43;5.45;;;12.70;99.90;;;;;;4984403;28;20053;-89
2022/06/16 00:31:18;;;;;;;10.18;5.00;;;12.70;99.90;;;;;;4983708;28;20049;-89
2022/06/16 00:33:44;;;;;;;8.25;4.97;;;12.70;99.90;;;;;;5016673;28;20147;-89
2022/06/16 00:36:10;;;;;;;10.63;5.05;;;12.60;99.90;;;;;;5016740;28;20104;-89
2022/06/16 00:38:36;;;;;;;11.15;5.75;;;12.60;99.90;;;;;;5015864;28;20046;-88
2022/06/16 00:41:02;;;;;;;8.27;5.10;;;12.60;99.90;;;;;;4983379;28;20045;-88
2022/06/16 00:43:27;;;;;;;9.57;6.35;;;12.50;99.90;;;;;;5032461;28;20100;-88
2022/06/16 00:45:55;;;;;;;9.07;6.00;;;12.60;99.90;;;;;;5015841;28;20052;-89
2022/06/16 00:48:38;;;;;;;7.38;5.13;;;12.60;99.90;;;;;;4967752;28;20089;-89
2022/06/16 00:51:07;;;;;;;7.72;6.07;;;12.70;99.90;;;;;;4983296;28;20045;-89
2022/06/16 00:53:32;;;;;;;6.95;4.90;;;12.40;99.90;;;;;;4999428;28;20136;-89
2022/06/16 00:55:58;;;;;;;9.10;5.55;;;12.10;99.90;;;;;;4983079;28;20132;-88
2022/06/16 00:58:24;;;;;;;13.20;6.05;;;12.00;99.90;;;;;;4983034;28;20092;-89
2022/06/16 01:00:50;;;;;;;10.23;5.10;;;12.00;99.90;;;;;;4983552;28;20045;-89
2022/06/16 01:06:20;;;;;;;9.45;6.15;;;11.90;99.90;;;;;;5018700;28;20068;-88
2022/06/16 01:08:47;;;;;;;7.90;6.32;;;11.90;99.90;;;;;;4999023;28;20054;-89
2022/06/16 01:13:41;;;;;;;11.43;6.38;;;12.00;99.90;;;;;;5015785;28;20485;-88
2022/06/16 01:14:20;;;;;;;9.02;6.38;;;11.90;99.90;;;;;;4987013;28;20057;-88
2022/06/16 01:16:46;;;;;;;10.93;6.57;;;11.80;99.90;;;;;;5017369;28;20050;-88
2022/06/16 01:19:14;;;;;;;8.73;6.30;;;11.80;99.90;;;;;;4982816;28;20116;-88
2022/06/16 01:21:59;;;;;;;10.65;6.15;;;11.80;99.90;;;;;;4984146;28;20425;-88
2022/06/16 01:24:40;;;;;;;10.25;6.68;;;11.80;99.90;;;;;;4966753;28;20064;-88
2022/06/16 01:27:27;;;;;;;12.98;7.45;;;11.90;99.90;;;;;;4998625;28;20395;-88
2022/06/16 01:30:10;;;;;;;10.30;6.90;;;11.90;99.90;;;;;;4984139;28;20466;-89
2022/06/16 01:32:48;;;;;;;10.50;7.53;;;11.90;99.90;;;;;;4998913;28;20053;-88
2022/06/16 01:35:33;;;;;;;11.38;7.18;;;11.90;99.90;;;;;;4982819;28;20061;-88
2022/06/16 01:38:13;;;;;;;12.63;7.15;;;11.80;99.90;;;;;;4982848;28;20378;-89
2022/06/16 01:41:05;;;;;;;8.93;6.45;;;11.80;99.90;;;;;;4967124;28;20494;-89
2022/06/16 01:43:40;;;;;;;12.82;7.03;;;11.80;99.90;;;;;;5001889;28;20053;-89
2022/06/16 01:46:21;;;;;;;11.43;6.57;;;11.80;99.90;;;;;;4983634;28;20053;-88
2022/06/16 01:48:55;;;;;;;10.23;6.80;;;11.80;99.90;;;;;;4998987;28;20053;-88
2022/06/16 01:51:36;;;;;;;11.27;6.65;;;11.80;99.90;;;;;;5016425;28;20528;-89
2022/06/16 01:54:23;;;;;;;7.90;6.70;;;11.90;99.90;;;;;;4983030;28;20046;-89
2022/06/16 01:57:17;;;;;;;11.98;7.30;;;11.90;99.90;;;;;;4967131;28;20114;-90
2022/06/16 02:00:00;;;;;;;11.13;6.88;;;11.90;99.90;;;;;;4961801;28;20068;-89
2022/06/16 02:02:28;;;;;;;12.10;7.32;;;11.90;99.90;;;;;;5016727;28;20488;-89
2022/06/16 02:05:03;;;;;;;9.80;6.88;;;12.00;99.90;;;;;;5014855;28;20060;-89
2022/06/16 02:07:34;;;;;;;12.82;7.60;;;12.00;99.90;;;;;;4965741;28;20054;-89
2022/06/16 02:10:07;;;;;;;10.10;7.40;;;11.90;99.90;;;;;;5014848;28;20087;-88
2022/06/16 02:15:29;;;;;;;13.10;8.13;;;12.20;99.90;;;;;;5017459;28;20157;-89
2022/06/16 02:17:55;;;;;;;13.55;7.63;;;12.10;99.90;;;;;;5016051;28;20049;-88
2022/06/16 02:20:21;;;;;;;10.00;7.32;;;11.90;99.90;;;;;;4981534;28;20522;-89
2022/06/16 02:22:48;;;;;;;12.10;7.82;;;11.80;99.90;;;;;;4965796;28;20486;-89
2022/06/16 02:25:13;;;;;;;17.90;8.65;;;11.70;99.90;;;;;;4980512;28;20085;-89
2022/06/16 02:27:39;;;;;;;14.05;9.15;;;11.80;99.90;;;;;;4997064;28;20140;-88
2022/06/16 02:30:06;;;;;;;13.40;9.25;;;11.80;99.90;;;;;;5013782;28;20046;-88
2022/06/16 02:32:31;;;;;;;17.63;9.68;;;11.80;99.90;;;;;;5030255;28;20038;-88
2022/06/16 02:35:24;;;;;;;16.08;10.18;;;11.80;99.90;;;;;;4997538;28;20116;-89
2022/06/16 02:38:07;;;;;;;13.43;8.00;;;11.90;99.90;;;;;;4996961;28;20049;-89
2022/06/16 02:40:47;;;;;;;16.42;8.75;;;11.90;99.90;;;;;;5015085;28;20111;-88
2022/06/16 02:43:47;;;;;;;13.43;9.35;;;12.00;99.90;;;;;;4981435;28;20046;-88
2022/06/16 02:46:36;;;;;;;12.25;8.85;;;12.00;99.90;;;;;;5014180;28;20099;-89
2022/06/16 02:49:18;;;;;;;15.98;8.30;;;12.00;99.90;;;;;;4984339;28;20089;-89
2022/06/16 02:51:47;;;;;;;14.82;7.85;;;12.00;99.90;;;;;;4982337;28;20551;-89
2022/06/16 02:54:20;;;;;;;12.98;8.68;;;12.00;99.90;;;;;;5013718;28;20042;-89
2022/06/16 02:56:52;;;;;;;15.77;9.00;;;12.00;99.90;;;;;;4965597;28;20068;-89
2022/06/16 02:59:21;;;;;;;15.27;8.52;;;12.00;99.90;;;;;;4980850;28;20096;-89
2022/06/16 03:01:47;;;;;;;14.80;8.07;;;11.90;99.90;;;;;;4964898;28;20042;-89
2022/06/16 03:04:15;;;;;;;15.00;8.80;;;11.90;99.90;;;;;;4981507;28;20108;-88
2022/06/16 03:06:41;;;;;;;13.13;8.82;;;11.90;99.90;;;;;;4980931;28;20501;-89
2022/06/16 03:09:06;;;;;;;15.18;8.43;;;11.90;99.90;;;;;;4981127;28;20497;-89
2022/06/16 03:11:33;;;;;;;13.23;8.00;;;11.90;99.90;;;;;;4981147;28;20049;-89
2022/06/16 03:13:59;;;;;;;14.27;8.23;;;11.90;99.90;;;;;;4981463;28;20050;-88
2022/06/16 03:16:24;;;;;;;13.52;8.38;;;11.90;99.90;;;;;;4981761;28;20045;-88
2022/06/16 03:18:50;;;;;;;11.40;8.10;;;12.00;99.90;;;;;;4996572;28;20489;-89
2022/06/16 03:21:16;;;;;;;14.05;8.95;;;12.00;99.90;;;;;;5014210;28;20361;-89
2022/06/16 03:23:42;;;;;;;12.90;8.90;;;12.00;99.90;;;;;;4980491;28;20108;-89
2022/06/16 03:26:07;;;;;;;14.13;8.70;;;11.90;99.90;;;;;;5013086;28;20054;-86
2022/06/16 03:28:33;;;;;;;13.40;8.75;;;12.00;99.90;;;;;;4997385;28;20046;-89
2022/06/16 03:30:59;;;;;;;11.57;8.25;;;12.00;99.90;;;;;;4965002;28;20385;-89
2022/06/16 03:33:24;;;;;;;11.57;8.20;;;12.00;99.90;;;;;;5013532;28;20481;-89
2022/06/16 03:35:50;;;;;;;12.85;8.50;;;12.00;99.90;;;;;;4998696;28;20054;-88
2022/06/16 03:38:26;;;;;;;14.75;8.38;;;12.00;99.90;;;;;;4968546;28;20436;-89
2022/06/16 03:40:51;;;;;;;12.73;8.57;;;12.00;99.90;;;;;;4969845;28;20049;-88
2022/06/16 03:43:17;;;;;;;12.00;7.75;;;12.00;99.90;;;;;;5000588;28;20049;-88
2022/06/16 03:45:43;;;;;;;11.57;8.05;;;12.10;99.90;;;;;;5000859;28;20049;-88
2022/06/16 03:48:08;;;;;;;13.65;7.30;;;12.10;99.90;;;;;;5017350;28;20049;-89
2022/06/16 03:50:34;;;;;;;11.43;7.70;;;12.20;99.90;;;;;;5001044;28;20042;-89
2022/06/16 03:53:00;;;;;;;13.52;8.25;;;12.20;99.90;;;;;;5017728;28;20173;-88
2022/06/16 03:55:26;;;;;;;10.93;7.00;;;12.20;99.90;;;;;;4984566;28;20042;-89
2022/06/16 03:57:52;;;;;;;10.60;7.65;;;12.30;99.90;;;;;;5016982;28;20132;-90
2022/06/16 04:00:18;;;;;;;12.75;7.47;;;12.40;99.90;;;;;;4984461;28;20049;-89
2022/06/16 04:02:44;;;;;;;10.45;7.78;;;12.40;99.90;;;;;;5001203;28;20053;-89
2022/06/16 04:05:10;;;;;;;14.82;8.93;;;12.40;99.90;;;;;;5000889;28;20425;-89
2022/06/16 04:07:35;;;;;;;10.75;8.00;;;12.50;99.90;;;;;;4968331;28;20474;-89
2022/06/16 04:10:03;;;;;;;12.57;7.53;;;12.50;99.90;;;;;;5000343;28;20053;-89
2022/06/16 04:12:29;;;;;;;17.15;7.88;;;12.50;99.90;;;;;;4968868;28;20050;-89
2022/06/16 04:14:54;;;;;;;13.05;7.97;;;12.50;99.90;;;;;;5016692;28;20549;-89
2022/06/16 04:17:20;;;;;;;12.05;7.35;;;12.50;99.90;;;;;;4984166;28;20048;-89
2022/06/16 04:22:30;;;;;;;12.27;7.28;;;12.60;99.90;;;;;;5019484;28;20054;-89
2022/06/16 04:24:55;;;;;;;12.80;7.95;;;12.60;99.90;;;;;;5000568;28;20037;-89
2022/06/16 04:27:21;;;;;;;12.75;7.38;;;12.60;99.90;;;;;;5016340;28;20057;-88
2022/06/16 04:29:47;;;;;;;11.20;7.50;;;12.70;99.90;;;;;;5016078;28;20068;-89
2022/06/16 04:32:12;;;;;;;11.38;7.20;;;12.90;99.90;;;;;;5000726;28;20057;-89
2022/06/16 04:34:39;;;;;;;15.93;7.40;;;13.00;99.90;;;;;;5000637;28;20373;-89
2022/06/16 04:37:05;;;;;;;12.70;7.75;;;13.20;99.90;;;;;;4983681;28;20469;-89
2022/06/16 04:39:30;;;;;;;12.95;6.80;;;13.50;99.90;;;;;;4967492;28;20056;-88
2022/06/16 04:41:56;;;;;;;14.27;6.40;;;14.00;99.90;;;;;;4983434;28;20539;-89
2022/06/16 04:44:22;;;;;;;16.30;6.35;;;14.60;99.90;;;;;;4983474;28;20162;-88
2022/06/16 04:46:47;;;;;;;9.93;5.80;;;14.90;99.90;;;;;;4982213;28;20496;-88
2022/06/16 04:49:13;;;;;;;11.93;6.57;;;15.00;99.90;;;;;;4983866;28;20064;-88
2022/06/16 04:51:38;;;;;;;8.50;5.35;;;15.00;99.90;;;;;;4983101;28;20397;-87
2022/06/16 04:54:04;;;;;;;11.00;5.95;;;15.00;99.90;;;;;;5015774;28;20041;-87
2022/06/16 04:56:30;;;;;;;12.20;6.45;;;15.00;99.90;;;;;;4982920;28;20046;-87
2022/06/16 04:58:55;;;;;;;10.07;5.55;;;14.90;99.90;;;;;;4983894;28;20528;-87
2022/06/16 05:01:21;;;;;;;10.07;5.03;;;15.10;99.90;;;;;;4983409;28;20050;-87
2022/06/16 05:03:47;;;;;;;12.82;5.10;;;15.30;99.90;;;;;;4967065;28;20502;-88
2022/06/16 05:06:12;;;;;;;10.95;5.43;;;15.50;99.90;;;;;;5015741;28;20050;-88
2022/06/16 05:08:38;;;;;;;7.93;4.40;;;15.80;99.90;;;;;;4999040;28;20508;-87
2022/06/16 05:11:04;;;;;;;8.68;4.53;;;16.00;99.90;;;;;;4999360;28;20492;-87
2022/06/16 05:13:29;;;;;;;8.00;3.65;;;16.80;99.90;;;;;;4982870;28;20046;-88
2022/06/16 05:15:55;;;;;;;5.85;4.15;;;17.40;99.90;;;;;;5015736;28;20072;-88
2022/06/16 05:18:21;;;;;;;4.75;3.22;;;17.50;99.90;;;;;;4982955;28;20037;-86
2022/06/16 05:20:46;;;;;;;11.65;4.30;;;17.40;99.90;;;;;;5015844;28;20085;-88
2022/06/16 05:23:12;;;;;;;5.40;2.95;;;17.30;99.90;;;;;;4999180;28;20469;-87
2022/06/16 05:25:39;;;;;;;5.57;2.55;;;17.50;99.90;;;;;;5015371;28;20101;-88
2022/06/16 05:28:05;;;;;;;4.53;2.50;;;17.10;99.90;;;;;;4982769;28;20053;-88
2022/06/16 05:30:31;;;;;;;6.47;2.65;;;16.90;99.90;;;;;;4982595;28;20188;-88
2022/06/16 05:32:56;;;;;;;3.92;2.28;;;16.80;99.90;;;;;;5015982;28;20056;-88
2022/06/16 05:35:22;;;;;;;7.32;3.50;;;16.60;99.90;;;;;;4998646;28;20557;-86
2022/06/16 05:37:48;;;;;;;6.68;2.38;;;16.60;99.90;;;;;;5000140;28;20045;-87
2022/06/16 05:40:14;;;;;;;5.53;2.97;;;16.70;99.90;;;;;;5023215;28;20046;-87
2022/06/16 05:42:39;;;;;;;8.73;3.85;;;16.70;99.90;;;;;;5024358;28;20046;-87
2022/06/16 05:45:06;;;;;;;6.05;3.60;;;16.80;99.90;;;;;;5026188;28;20114;-87
2022/06/16 05:47:31;;;;;;;6.10;3.65;;;16.80;99.90;;;;;;5044868;28;20050;-87
2022/06/16 05:49:58;;;;;;;8.30;4.35;;;17.00;99.90;;;;;;5013043;28;20049;-87
2022/06/16 05:52:24;;;;;;;5.43;3.72;;;17.10;99.90;;;;;;4998235;28;20462;-87
2022/06/16 05:54:49;;;;;;;6.80;4.25;;;17.20;99.90;;;;;;5034934;28;20085;-87
2022/06/16 05:57:15;;;;;;;6.38;4.15;;;17.30;99.90;;;;;;5005177;28;20032;-87
2022/06/16 05:59:41;;;;;;;6.70;4.03;;;17.60;99.90;;;;;;5020640;28;20085;-87
2022/06/16 06:02:12;;;;;;;5.65;3.55;;;17.70;99.90;;;;;;5004236;28;20049;-87
2022/06/16 06:04:37;;;;;;;8.20;3.80;;;18.00;99.90;;;;;;5035180;28;20125;-88
2022/06/16 06:07:03;;;;;;;5.85;3.70;;;18.20;99.90;;;;;;5017074;28;20029;-89
2022/06/16 06:17:44;;;;;;;5.22;2.63;;;19.00;99.90;;;;;;5006531;28;20049;-88
2022/06/16 06:20:10;;;;;;;5.95;2.60;;;19.50;99.90;;;;;;5007894;28;20038;-88
2022/06/16 06:22:36;;;;;;;3.92;2.10;;;20.40;99.90;;;;;;5005984;28;20049;-88
2022/06/16 06:25:01;;;;;;;3.60;1.83;;;21.30;99.90;;;;;;5013598;28;20105;-89
2022/06/16 06:27:39;;;;;;;3.35;1.60;;;21.70;99.90;;;;;;5012566;28;20062;-88
2022/06/16 06:30:14;;;;;;;3.30;1.63;;;22.10;99.90;;;;;;4978925;28;20367;-88
2022/06/16 06:32:39;;;;;;;4.07;1.58;;;22.60;99.90;;;;;;5028503;28;20080;-88
2022/06/16 06:35:05;;;;;;;4.65;1.38;;;22.50;99.90;;;;;;4972870;28;20049;-89
2022/06/16 06:37:31;;;;;;;3.85;1.70;;;22.90;99.90;;;;;;4986737;28;20056;-87
2022/06/16 06:39:57;;;;;;;4.63;1.40;;;23.40;99.90;;;;;;4999837;28;20472;-88
2022/06/16 06:42:23;;;;;;;4.47;1.30;;;23.20;99.90;;;;;;4983163;28;20072;-88
2022/06/16 06:44:49;;;;;;;2.70;1.33;;;23.60;99.90;;;;;;5014850;28;20052;-87
2022/06/16 06:47:19;;;;;;;4.57;1.90;;;24.40;99.90;;;;;;4982325;28;20466;-88
2022/06/16 06:49:44;;;;;;;5.95;1.75;;;24.70;99.90;;;;;;4965813;28;20092;-87
2022/06/16 06:52:10;;;;;;;3.15;1.75;;;24.50;99.90;;;;;;4982815;28;20065;-88
2022/06/16 06:54:36;;;;;;;5.97;1.30;;;24.20;99.90;;;;;;5014555;28;20046;-87
2022/06/16 06:57:02;;;;;;;3.33;1.20;;;24.80;99.90;;;;;;5017170;28;20046;-87
2022/06/16 06:59:27;;;;;;;3.03;1.00;;;24.50;99.90;;;;;;4967129;28;20115;-87
2022/06/16 07:01:53;;;;;;;3.80;1.20;;;23.50;99.90;;;;;;5014701;28;20053;-88
2022/06/16 07:04:19;;;;;;;2.33;0.90;;;24.20;99.90;;;;;;4998433;28;20100;-87
2022/06/16 07:06:45;;;;;;;3.03;1.33;;;24.80;99.50;;;;;;4982028;28;20052;-87
2022/06/16 07:09:11;;;;;;;2.17;1.00;;;24.60;99.40;;;;;;4982230;28;20061;-88
2022/06/16 07:11:40;;;;;;;4.07;0.93;;;24.70;99.30;;;;;;4981503;28;20135;-88
2022/06/16 07:14:06;;;;;;;3.65;1.45;;;24.80;98.80;;;;;;5014170;28;20082;-87
2022/06/16 07:16:32;;;;;;;2.78;1.08;;;24.20;99.30;;;;;;4981544;28;20081;-88
2022/06/16 07:18:58;;;;;;;3.42;1.00;;;24.50;98.30;;;;;;4998352;28;20057;-88
2022/06/16 07:21:24;;;;;;;1.50;0.90;;;24.70;98.30;;;;;;4982297;28;20046;-87
2022/06/16 07:23:51;;;;;;;1.42;0.93;;;24.60;98.70;;;;;;4966623;28;20092;-88
2022/06/16 07:26:17;;;;;;;1.55;1.00;;;24.60;99.10;;;;;;4981000;28;20054;-88
2022/06/16 07:28:42;;;;;;;2.35;1.13;;;24.60;98.00;;;;;;5014586;28;20057;-88
2022/06/16 07:31:08;;;;;;;3.90;1.23;;;25.10;97.50;;;;;;4980848;28;20042;-88
2022/06/16 07:33:34;;;;;;;1.90;0.90;;;24.80;97.80;;;;;;4981771;28;20280;-88
2022/06/16 07:35:59;;;;;;;1.80;0.80;;;24.50;98.00;;;;;;4981441;28;20058;-87
2022/06/16 07:38:25;;;;;;;2.08;1.00;;;25.10;97.20;;;;;;4980476;28;20042;-88
2022/06/16 07:40:52;;;;;;;2.35;1.20;;;25.40;96.80;;;;;;4996889;28;20046;-88
2022/06/16 07:43:18;;;;;;;2.45;1.05;;;25.20;97.00;;;;;;5013337;28;20616;-88
2022/06/16 07:45:45;;;;;;;1.85;1.00;;;24.80;96.30;;;;;;5013144;28;20137;-88
2022/06/16 07:48:11;;;;;;;1.23;1.00;;;25.50;96.70;;;;;;4980947;28;20054;-88
2022/06/16 07:50:37;;;;;;;2.35;1.05;;;25.70;96.90;;;;;;5013104;28;20132;-89
2022/06/16 07:53:04;;;;;;;1.48;0.90;;;25.80;96.10;;;;;;5012732;28;20482;-87
2022/06/16 07:55:30;;;;;;;3.45;1.00;;;24.80;96.70;;;;;;4997739;28;20490;-87
2022/06/16 07:57:55;;;;;;;2.22;1.10;;;24.70;97.20;;;;;;5013406;28;20056;-88
2022/06/16 08:00:23;;;;;;;3.35;1.05;;;24.60;97.70;;;;;;4992280;28;20054;-86
2022/06/16 08:02:49;;;;;;;1.98;1.05;;;25.10;97.10;;;;;;4984659;28;20116;-86
2022/06/16 08:05:16;;;;;;;2.75;1.58;;;25.60;96.80;;;;;;5015860;28;20101;-87
2022/06/16 08:07:42;;;;;;;2.97;0.95;;;24.50;98.10;;;;;;5030197;28;20209;-86
2022/06/16 08:10:11;;;;;;;1.92;1.00;;;25.00;97.40;;;;;;5015839;28;20061;-88
2022/06/16 08:12:37;;;;;;;1.60;1.05;;;24.00;97.70;;;;;;5023800;28;20123;-87
2022/06/16 08:15:03;;;;;;;3.10;1.20;;;25.20;97.00;;;;;;4997402;28;20045;-87
2022/06/16 08:17:31;;;;;;;2.22;1.20;;;25.90;96.90;;;;;;4981200;28;20042;-87
2022/06/16 08:19:57;;;;;;;2.63;1.23;;;25.40;96.90;;;;;;5012955;28;20050;-88
2022/06/16 08:22:23;;;;;;;2.58;1.10;;;24.60;97.40;;;;;;5004491;28;20050;-87
2022/06/16 08:24:49;;;;;;;3.78;1.25;;;25.50;97.20;;;;;;5005114;28;20053;-87
2022/06/16 08:27:15;;;;;;;4.28;1.85;;;25.80;96.80;;;;;;5002935;28;20057;-89
2022/06/16 08:29:42;;;;;;;2.75;1.55;;;26.10;96.10;;;;;;5036822;28;20066;-88
2022/06/16 08:32:08;;;;;;;4.93;1.90;;;25.90;96.60;;;;;;5034671;28;20053;-88
2022/06/16 08:34:34;;;;;;;4.88;1.55;;;26.60;96.40;;;;;;5020123;28;20054;-89
2022/06/16 08:36:59;;;;;;;3.92;2.00;;;25.80;97.60;;;;;;4983864;28;20049;-88
2022/06/16 08:39:25;;;;;;;3.42;2.15;;;25.00;97.50;;;;;;4983457;28;20050;-89
2022/06/16 08:42:01;;;;;;;3.47;2.08;;;25.00;97.40;;;;;;5016237;28;20049;-86
2022/06/16 08:44:39;;;;;;;3.20;2.08;;;25.00;97.30;;;;;;5017866;28;20080;-86
2022/06/16 08:47:17;;;;;;;3.72;1.88;;;25.30;98.30;;;;;;5000414;28;20060;-87
2022/06/16 08:50:05;;;;;;;3.95;2.20;;;25.50;97.00;;;;;;4999512;28;20053;-87
2022/06/16 08:52:45;;;;;;;3.50;2.03;;;25.80;97.20;;;;;;4983608;28;20061;-87
2022/06/16 08:55:33;;;;;;;5.43;2.40;;;25.40;97.60;;;;;;5001207;28;20049;-88
2022/06/16 08:58:24;;;;;;;4.75;2.20;;;25.60;97.90;;;;;;4999717;28;20050;-88
2022/06/16 09:00:54;;;;;;;3.83;2.40;;;25.90;97.90;;;;;;5016334;28;20084;-87
2022/06/16 09:03:33;;;;;;;3.55;2.20;;;25.50;97.80;;;;;;4966899;28;20176;-87
2022/06/16 09:06:12;;;;;;;3.55;2.53;;;24.80;97.90;;;;;;5018601;28;20071;-87
2022/06/16 09:08:37;;;;;;;4.38;2.88;;;25.10;98.20;;;;;;5018821;28;20115;-87
2022/06/16 09:12:00;;;;;;;5.13;2.65;;;25.00;97.80;;;;;;5000719;28;20038;-87
2022/06/16 09:17:33;;;;;;;4.97;2.67;;;25.00;99.30;;;;;;4959775;28;20102;-88
2022/06/16 09:20:14;;;;;;;4.03;2.53;;;25.30;98.70;;;;;;4989706;28;20100;-87
2022/06/16 09:22:51;;;;;;;5.05;2.55;;;25.80;97.60;;;;;;4985460;28;20153;-88
2022/06/16 09:25:35;;;;;;;2.90;2.30;;;25.40;97.90;;;;;;4983584;28;20458;-87
2022/06/16 09:28:07;;;;;;;5.63;2.80;;;25.10;98.20;;;;;;4982572;28;20061;-88
2022/06/16 09:30:37;;;;;;;4.43;2.65;;;25.80;98.70;;;;;;5016852;28;20132;-87
2022/06/16 09:33:07;;;;;;;5.13;2.55;;;25.90;97.90;;;;;;5015839;28;20363;-87
2022/06/16 09:35:47;;;;;;;4.35;2.78;;;25.80;98.20;;;;;;5015574;28;20446;-87
2022/06/16 09:38:25;;;;;;;4.50;2.78;;;25.80;98.30;;;;;;5015565;28;20474;-87
2022/06/16 09:40:58;;;;;;;4.57;2.72;;;25.40;98.20;;;;;;4999360;28;20054;-86
2022/06/16 09:43:42;;;;;;;2.67;2.05;;;25.90;97.60;;;;;;4966633;28;20504;-88
2022/06/16 09:46:22;;;;;;;3.35;2.65;;;26.70;97.90;;;;;;4982850;28;20103;-88
2022/06/16 09:48:54;;;;;;;5.82;2.53;;;26.90;97.30;;;;;;4983268;28;20054;-88
2022/06/16 09:51:47;;;;;;;5.65;3.22;;;26.20;98.10;;;;;;5016592;28;20103;-88
2022/06/16 09:54:26;;;;;;;4.32;2.70;;;25.50;98.10;;;;;;5015307;28;20054;-89
2022/06/16 09:57:01;;;;;;;5.85;2.70;;;26.50;97.50;;;;;;5015475;28;20054;-89
2022/06/16 09:59:46;;;;;;;2.83;2.50;;;26.00;97.90;;;;;;5015724;28;20490;-88
2022/06/16 10:02:26;;;;;;;7.45;3.88;;;25.80;98.00;;;;;;5016620;28;20089;-90
2022/06/16 10:04:53;;;;;;;4.75;2.80;;;25.50;97.80;;;;;;4983087;28;20445;-88
2022/06/16 10:07:43;;;;;;;3.80;3.05;;;24.60;99.30;;;;;;4981909;28;20049;-89
2022/06/16 10:10:19;;;;;;;4.70;3.30;;;24.50;99.10;;;;;;4984426;28;20061;-88
2022/06/16 10:12:59;;;;;;;5.15;2.83;;;25.20;98.70;;;;;;4983796;28;20450;-87
2022/06/16 10:15:49;;;;;;;5.50;2.95;;;24.90;99.60;;;;;;4984344;28;20041;-88
2022/06/16 10:18:17;;;;;;;4.85;3.47;;;25.80;99.70;;;;;;4992766;28;20054;-89
2022/06/16 10:20:43;;;;;;;5.55;3.22;;;26.10;97.90;;;;;;4982038;28;20108;-88
2022/06/16 10:23:22;;;;;;;4.32;3.00;;;26.10;98.90;;;;;;4966048;28;20133;-88
2022/06/16 10:25:54;;;;;;;4.93;3.47;;;26.10;98.50;;;;;;5014818;28;20057;-89
2022/06/16 10:28:32;;;;;;;6.82;3.30;;;26.20;98.00;;;;;;4981362;28;20050;-88
2022/06/16 10:30:59;;;;;;;5.38;3.53;;;26.80;97.70;;;;;;4997887;28;20096;-87
2022/06/16 10:33:35;;;;;;;6.63;3.75;;;26.30;97.70;;;;;;4965622;28;20061;-88
2022/06/16 10:36:05;;;;;;;6.82;3.63;;;26.00;97.50;;;;;;5014644;28;20058;-89
2022/06/16 10:38:42;;;;;;;6.32;4.03;;;26.50;97.50;;;;;;4981961;28;20125;-89
2022/06/16 10:41:29;;;;;;;5.70;3.80;;;27.30;96.70;;;;;;4997980;28;20056;-88
2022/06/16 10:43:56;;;;;;;4.28;3.40;;;27.10;96.40;;;;;;5030414;28;20474;-88
2022/06/16 10:46:27;;;;;;;4.72;3.20;;;26.50;96.90;;;;;;5013767;28;20077;-89
2022/06/16 10:48:54;;;;;;;5.88;3.78;;;26.10;97.20;;;;;;5014905;28;20050;-89
2022/06/16 10:51:25;;;;;;;4.45;3.08;;;26.90;96.20;;;;;;5013875;28;20065;-89
2022/06/16 10:54:00;;;;;;;4.95;3.70;;;26.90;97.10;;;;;;4981788;28;20091;-89
2022/06/16 10:56:26;;;;;;;6.78;3.28;;;26.50;96.90;;;;;;4998562;28;20107;-88
2022/06/16 10:59:00;;;;;;;5.28;3.50;;;26.20;97.40;;;;;;4996839;28;20111;-89
2022/06/16 11:01:40;;;;;;;5.90;3.67;;;26.20;97.10;;;;;;4997442;28;20150;-89
2022/06/16 11:04:09;;;;;;;6.63;3.65;;;26.20;96.80;;;;;;4982552;28;20038;-88
2022/06/16 11:06:37;;;;;;;4.55;3.35;;;26.50;97.10;;;;;;5013185;28;20045;-87
2022/06/16 11:09:04;;;;;;;5.47;3.40;;;26.10;96.70;;;;;;4981372;28;20139;-87
2022/06/16 11:11:52;;;;;;;4.72;3.30;;;26.40;96.90;;;;;;4997593;28;20057;-88
2022/06/16 11:14:55;;;;;;;6.15;3.50;;;27.20;95.60;;;;;;4996777;28;20124;-88
2022/06/16 11:17:37;;;;;;;6.07;4.00;;;26.40;96.50;;;;;;5000078;28;20101;-88
2022/06/16 11:20:13;;;;;;;6.22;3.28;;;25.80;96.50;;;;;;5010553;28;20103;-86
2022/06/16 11:22:41;;;;;;;5.45;3.40;;;25.30;97.70;;;;;;4966071;28;20386;-88
2022/06/16 11:25:31;;;;;;;6.47;3.67;;;25.40;97.40;;;;;;5013199;28;20088;-87
2022/06/16 11:28:00;;;;;;;4.85;3.17;;;25.50;97.30;;;;;;4974949;28;20115;-87
2022/06/16 11:30:43;;;;;;;7.07;3.30;;;25.90;97.20;;;;;;5013990;28;20103;-87
2022/06/16 11:36:28;;;;;;;4.75;3.08;;;25.60;96.60;;;;;;4997608;28;20390;-88
2022/06/16 11:38:59;;;;;;;6.10;3.28;;;25.30;97.40;;;;;;5015038;28;20132;-88
2022/06/16 11:41:25;;;;;;;5.68;3.03;;;25.10;97.30;;;;;;5013432;28;20046;-88
2022/06/16 11:44:00;;;;;;;4.47;2.60;;;24.70;97.70;;;;;;4981224;28;20076;-89
2022/06/16 11:46:39;;;;;;;6.72;3.17;;;25.00;97.00;;;;;;4996599;28;20084;-88
2022/06/16 11:49:29;;;;;;;5.20;2.60;;;25.20;96.90;;;;;;5013002;28;20050;-89
2022/06/16 11:52:16;;;;;;;8.32;3.85;;;25.10;97.20;;;;;;4981154;28;20133;-89
2022/06/16 11:54:59;;;;;;;3.83;3.30;;;25.40;97.60;;;;;;4964820;28;20081;-88
2022/06/16 11:57:41;;;;;;;3.60;3.15;;;25.10;97.70;;;;;;4983191;28;20499;-89
2022/06/16 12:00:20;;;;;;;7.75;3.40;;;25.40;97.10;;;;;;5017917;28;20171;-88
2022/06/16 12:03:12;;;;;;;6.50;3.58;;;25.40;97.00;;;;;;5017875;28;20038;-88
2022/06/16 12:06:04;;;;;;;5.03;3.33;;;25.20;97.50;;;;;;4995701;28;20062;-89
2022/06/16 12:09:00;;;;;;;3.92;3.22;;;25.40;97.60;;;;;;5019645;28;20129;-88
2022/06/16 12:11:32;;;;;;;5.95;2.75;;;25.40;97.90;;;;;;5019632;28;20136;-89
2022/06/16 12:14:08;;;;;;;5.22;3.28;;;25.20;98.40;;;;;;5000654;28;20100;-88
2022/06/16 12:16:53;;;;;;;8.13;3.20;;;25.40;97.70;;;;;;5017477;28;20114;-89
2022/06/16 12:19:49;;;;;;;2.90;2.38;;;25.20;97.80;;;;;;4986406;28;20421;-89
2022/06/16 12:22:27;;;;;;;3.92;2.80;;;25.70;97.50;;;;;;5017912;28;20052;-86
2022/06/16 12:25:06;;;;;;;4.60;2.90;;;25.50;96.60;;;;;;4968231;28;20050;-88
2022/06/16 12:27:48;;;;;;;6.25;3.10;;;25.50;96.40;;;;;;5016471;28;20069;-89
2022/06/16 12:30:22;;;;;;;5.90;2.55;;;25.30;97.40;;;;;;4985125;28;20141;-88
2022/06/16 12:33:05;;;;;;;3.85;2.80;;;25.00;97.90;;;;;;5017221;28;20046;-87
2022/06/16 12:35:57;;;;;;;4.35;2.90;;;25.20;97.50;;;;;;4985828;28;20089;-87
2022/06/16 12:38:30;;;;;;;7.10;3.15;;;25.30;96.90;;;;;;4984124;28;20054;-89
2022/06/16 12:41:08;;;;;;;4.07;2.90;;;25.50;96.60;;;;;;4984565;28;20049;-89
2022/06/16 12:44:00;;;;;;;6.38;3.22;;;25.50;97.00;;;;;;5017159;28;20144;-87
2022/06/16 12:46:35;;;;;;;4.35;3.00;;;24.90;97.10;;;;;;4985312;28;20141;-87
2022/06/16 12:49:09;;;;;;;5.00;3.03;;;24.80;97.10;;;;;;4984963;28;20474;-88
2022/06/16 12:51:37;;;;;;;5.85;2.50;;;24.60;97.40;;;;;;5016669;28;20050;-88
2022/06/16 12:54:06;;;;;;;4.22;2.80;;;24.80;97.90;;;;;;5016707;28;20046;-87
2022/06/16 12:56:43;;;;;;;5.15;3.00;;;25.00;97.40;;;;;;4982999;28;20085;-88
2022/06/16 12:59:31;;;;;;;6.10;3.30;;;25.20;97.70;;;;;;5017110;28;20050;-88
2022/06/16 13:01:58;;;;;;;7.35;3.28;;;24.70;97.30;;;;;;5000247;28;20053;-87
2022/06/16 13:04:26;;;;;;;7.57;3.38;;;24.60;98.00;;;;;;4983858;28;20045;-88
2022/06/16 13:06:52;;;;;;;5.18;3.25;;;24.60;96.90;;;;;;5016143;28;20049;-87
2022/06/16 13:09:23;;;;;;;7.57;3.33;;;23.90;98.20;;;;;;4982551;28;20137;-87
2022/06/16 13:12:04;;;;;;;6.47;3.00;;;24.10;97.90;;;;;;5017045;28;20049;-87
2022/06/16 13:14:31;;;;;;;5.63;3.20;;;24.00;98.70;;;;;;4968321;28;20056;-88
2022/06/16 13:16:59;;;;;;;7.57;3.25;;;24.00;98.20;;;;;;4983074;28;20046;-87
2022/06/16 13:19:25;;;;;;;6.47;2.78;;;24.50;98.20;;;;;;4966838;28;20461;-86
2022/06/16 13:21:56;;;;;;;5.22;2.65;;;24.90;98.40;;;;;;5015343;28;20054;-87
2022/06/16 13:24:35;;;;;;;5.72;3.13;;;25.10;98.30;;;;;;4983641;28;20382;-88
2022/06/16 13:27:22;;;;;;;4.95;3.10;;;25.10;97.20;;;;;;5015379;28;20065;-89
2022/06/16 13:29:50;;;;;;;4.90;2.90;;;25.10;97.70;;;;;;4985226;28;20457;-89